You are here

Stations

Station Name Date Time Temperature Relative Humidity Precipitation Wind Speed Wind Direction Create Custom Report Daily Report Hourly Report
Aberdeen VTcr 2021-17-01 2:45 34.5 87.60 0.00 2.27 S
Bee Lake 2021-17-01 2:45 36.5 83.50 0.00 0.48 SW
Brooksville 2021-17-01 2:45 32.5 92.90 0.00 4.03 SW
Brooksville2 VTso 2021-17-01 2:45 32.2 92.20 0.00
Brown Loam Exp Stn VT 2021-17-01 2:44
Brown Loam Exp. Stn. 2021-17-01 2:45 28.7 99.90 0.00 0.12 ESE
Clarksdale VTso 2021-17-01 2:45 33.0 94.60 0.00
Cleveland 2021-17-01 2:45 34.7 91.50 0.00 1.91 SW
Coastal Res & Ext Cnt 2021-17-01 2:45 35.7 93.50 0.00 0.23 N
COOP Stoneville 2021-07-01 7:00 41.0 65 0.67
Cooper Farm 2021-17-01 2:45 37.8 84.90 0.00 2.84 SSW
Home Cypress Farm 2021-17-01 2:45 33.2 91.70 0.00 2.23 WSW
Lancaster 2021-17-01 2:45 38.2 76.12 0.00 3.97 SW
Lyon 2021-17-01 2:45 36.0 82.40 0.00 2.40 S
Macon VTcr 2021-17-01 2:45 32.9 89.90 0.00 0.00 S
Mantee VT 2021-17-01 2:45 30.7 96.90 0.00 0.00 SSW
Money 2021-17-01 2:45 34.9 86.00 0.00 2.59 SSE
Mound Bayou 2021-17-01 2:45 35.8 85.50 0.00 1.35 SW
MSU North Farm Starkv 2021-17-01 2:45 34.5 80.80 0.00 0.99 SSW
Natchez 2021-17-01 2:45 30.0 99.20 0.00 0.84 NE
Olive Branch2 VTso 2021-17-01 2:45 32.3 96.00 0.00
Onward VT 2021-17-01 2:45 40.4 74.47 0.00
Pontotoc AWS COOP 2021-17-01 2:44
Pontotoc Exp Stn 2021-17-01 2:45 34.6 83.40 0.00 2.95 ESE
Prairie 2021-17-01 2:45 34.0 99.60 0.00 1.73 SSW
Sidon 2021-17-01 2:45 35.0 92.20 0.00 1.50 ESE
Stoneville AWS 2021-17-01 2:45 36.1 85.00 0.00 2.11 W
Stoneville F10 2021-17-01 2:45 36.8 0.31 0.00 3.21 WSW
Stoneville W 2021-17-01 2:45 38.9 78.04 0.00 3.21 WSW
Stoneville_F8 2021-17-01 2:45 37.8 81.80 0.00 3.48 WSW
Stoneville_SW 2021-17-01 2:45 37.9 83.30 0.00 4.12 WSW
Thighman 2021-17-01 2:45 37.8 87.60 0.00 0.24 SSW
Tippo VT 2021-17-01 2:44
Tribbett 2021-17-01 2:45 36.9 87.40 0.00 1.82 WSW
Tunica 2021-17-01 2:45 33.2 89.70 0.00 0.71 SSE
Verona 2021-17-01 2:45 36.4 79.14 0.00 0.27 NE
Verona VTso 2021-17-01 2:45 36.4 82.70 0.00
Vicksburg 2021-17-01 2:15 32.7 93.70 0.00 3.91 ESE
Back to Top